sensor_id;sensor_type;location;lat;lon;timestamp;P1;durP1;ratioP1;P2;durP2;ratioP2
38783;SDS011;24531;45.502;12.238;2024-02-16T00:01:17;64.82;;;31.70;;
38783;SDS011;24531;45.502;12.238;2024-02-16T00:03:43;68.53;;;30.90;;
38783;SDS011;24531;45.502;12.238;2024-02-16T00:06:08;66.38;;;31.50;;
38783;SDS011;24531;45.502;12.238;2024-02-16T00:08:34;72.18;;;31.90;;
38783;SDS011;24531;45.502;12.238;2024-02-16T00:11:03;56.67;;;30.45;;
38783;SDS011;24531;45.502;12.238;2024-02-16T00:13:29;59.58;;;30.27;;
38783;SDS011;24531;45.502;12.238;2024-02-16T00:15:55;58.05;;;30.67;;
38783;SDS011;24531;45.502;12.238;2024-02-16T00:18:22;60.97;;;30.13;;
38783;SDS011;24531;45.502;12.238;2024-02-16T00:20:47;66.53;;;28.85;;
38783;SDS011;24531;45.502;12.238;2024-02-16T00:23:13;63.17;;;29.38;;
38783;SDS011;24531;45.502;12.238;2024-02-16T00:25:39;78.45;;;30.48;;
38783;SDS011;24531;45.502;12.238;2024-02-16T00:28:05;86.22;;;30.45;;
38783;SDS011;24531;45.502;12.238;2024-02-16T00:30:31;63.35;;;31.00;;
38783;SDS011;24531;45.502;12.238;2024-02-16T00:32:57;152.10;;;35.40;;
38783;SDS011;24531;45.502;12.238;2024-02-16T00:35:22;131.93;;;33.58;;
38783;SDS011;24531;45.502;12.238;2024-02-16T00:37:48;112.25;;;30.67;;
38783;SDS011;24531;45.502;12.238;2024-02-16T00:40:14;116.85;;;34.45;;
38783;SDS011;24531;45.502;12.238;2024-02-16T00:42:39;140.85;;;35.17;;
38783;SDS011;24531;45.502;12.238;2024-02-16T00:45:05;72.13;;;32.53;;
38783;SDS011;24531;45.502;12.238;2024-02-16T00:47:31;116.57;;;32.05;;
38783;SDS011;24531;45.502;12.238;2024-02-16T00:49:58;72.68;;;30.92;;
38783;SDS011;24531;45.502;12.238;2024-02-16T00:52:24;109.13;;;33.33;;
38783;SDS011;24531;45.502;12.238;2024-02-16T00:54:49;64.32;;;30.17;;
38783;SDS011;24531;45.502;12.238;2024-02-16T00:57:15;69.78;;;29.60;;
38783;SDS011;24531;45.502;12.238;2024-02-16T00:59:41;92.93;;;31.55;;
38783;SDS011;24531;45.502;12.238;2024-02-16T01:02:07;83.28;;;31.90;;
38783;SDS011;24531;45.502;12.238;2024-02-16T01:04:34;47.00;;;29.65;;
38783;SDS011;24531;45.502;12.238;2024-02-16T01:07:00;50.20;;;31.55;;
38783;SDS011;24531;45.502;12.238;2024-02-16T01:09:26;55.08;;;31.25;;
38783;SDS011;24531;45.502;12.238;2024-02-16T01:11:52;54.78;;;30.40;;
38783;SDS011;24531;45.502;12.238;2024-02-16T01:14:17;85.32;;;31.80;;
38783;SDS011;24531;45.502;12.238;2024-02-16T01:16:43;53.40;;;29.80;;
38783;SDS011;24531;45.502;12.238;2024-02-16T01:19:11;46.25;;;30.27;;
38783;SDS011;24531;45.502;12.238;2024-02-16T01:21:37;44.80;;;31.10;;
38783;SDS011;24531;45.502;12.238;2024-02-16T01:24:03;57.65;;;32.13;;
38783;SDS011;24531;45.502;12.238;2024-02-16T01:26:29;59.33;;;31.42;;
38783;SDS011;24531;45.502;12.238;2024-02-16T01:28:56;66.30;;;32.63;;
38783;SDS011;24531;45.502;12.238;2024-02-16T01:31:23;72.63;;;32.38;;
38783;SDS011;24531;45.502;12.238;2024-02-16T01:33:48;75.53;;;32.35;;
38783;SDS011;24531;45.502;12.238;2024-02-16T01:36:14;74.05;;;31.23;;
38783;SDS011;24531;45.502;12.238;2024-02-16T01:38:39;68.40;;;32.80;;
38783;SDS011;24531;45.502;12.238;2024-02-16T01:41:05;62.70;;;33.28;;
38783;SDS011;24531;45.502;12.238;2024-02-16T01:43:32;66.43;;;33.28;;
38783;SDS011;24531;45.502;12.238;2024-02-16T01:45:58;80.70;;;33.63;;
38783;SDS011;24531;45.502;12.238;2024-02-16T01:48:24;85.82;;;32.15;;
38783;SDS011;24531;45.502;12.238;2024-02-16T01:50:51;68.72;;;33.45;;
38783;SDS011;24531;45.502;12.238;2024-02-16T01:53:17;59.47;;;33.85;;
38783;SDS011;24531;45.502;12.238;2024-02-16T01:55:44;76.38;;;32.75;;
38783;SDS011;24531;45.502;12.238;2024-02-16T01:58:11;56.58;;;33.05;;
38783;SDS011;24531;45.502;12.238;2024-02-16T02:00:36;75.35;;;33.88;;
38783;SDS011;24531;45.502;12.238;2024-02-16T02:03:03;59.55;;;33.78;;
38783;SDS011;24531;45.502;12.238;2024-02-16T02:05:29;55.38;;;33.30;;
38783;SDS011;24531;45.502;12.238;2024-02-16T02:07:54;54.55;;;33.58;;
38783;SDS011;24531;45.502;12.238;2024-02-16T02:10:20;77.70;;;34.97;;
38783;SDS011;24531;45.502;12.238;2024-02-16T02:12:46;79.95;;;34.38;;
38783;SDS011;24531;45.502;12.238;2024-02-16T02:15:11;57.58;;;33.10;;
38783;SDS011;24531;45.502;12.238;2024-02-16T02:17:37;91.90;;;35.17;;
38783;SDS011;24531;45.502;12.238;2024-02-16T02:20:03;120.28;;;37.25;;
38783;SDS011;24531;45.502;12.238;2024-02-16T02:22:32;101.07;;;37.80;;
38783;SDS011;24531;45.502;12.238;2024-02-16T02:24:58;86.90;;;35.88;;
38783;SDS011;24531;45.502;12.238;2024-02-16T02:27:24;80.93;;;34.80;;
38783;SDS011;24531;45.502;12.238;2024-02-16T02:29:50;89.47;;;35.17;;
38783;SDS011;24531;45.502;12.238;2024-02-16T02:32:16;95.22;;;37.47;;
38783;SDS011;24531;45.502;12.238;2024-02-16T02:34:42;70.47;;;35.60;;
38783;SDS011;24531;45.502;12.238;2024-02-16T02:37:08;78.13;;;34.85;;
38783;SDS011;24531;45.502;12.238;2024-02-16T02:39:33;80.20;;;37.53;;
38783;SDS011;24531;45.502;12.238;2024-02-16T02:41:59;87.80;;;38.67;;
38783;SDS011;24531;45.502;12.238;2024-02-16T02:44:25;89.97;;;37.15;;
38783;SDS011;24531;45.502;12.238;2024-02-16T02:46:51;108.13;;;37.70;;
38783;SDS011;24531;45.502;12.238;2024-02-16T02:49:17;103.68;;;38.60;;
38783;SDS011;24531;45.502;12.238;2024-02-16T02:51:43;81.28;;;36.28;;
38783;SDS011;24531;45.502;12.238;2024-02-16T02:54:09;76.25;;;37.38;;
38783;SDS011;24531;45.502;12.238;2024-02-16T02:56:34;80.43;;;35.70;;
38783;SDS011;24531;45.502;12.238;2024-02-16T02:59:00;70.38;;;35.58;;
38783;SDS011;24531;45.502;12.238;2024-02-16T03:01:26;97.40;;;36.35;;
38783;SDS011;24531;45.502;12.238;2024-02-16T03:03:51;77.22;;;34.92;;
38783;SDS011;24531;45.502;12.238;2024-02-16T03:06:18;66.10;;;35.13;;
38783;SDS011;24531;45.502;12.238;2024-02-16T03:08:44;63.38;;;34.65;;
38783;SDS011;24531;45.502;12.238;2024-02-16T03:11:10;54.92;;;36.30;;
38783;SDS011;24531;45.502;12.238;2024-02-16T03:13:35;62.97;;;32.55;;
38783;SDS011;24531;45.502;12.238;2024-02-16T03:16:01;82.22;;;35.60;;
38783;SDS011;24531;45.502;12.238;2024-02-16T03:18:31;98.93;;;34.53;;
38783;SDS011;24531;45.502;12.238;2024-02-16T03:20:57;55.55;;;33.75;;
38783;SDS011;24531;45.502;12.238;2024-02-16T03:23:23;62.20;;;33.20;;
38783;SDS011;24531;45.502;12.238;2024-02-16T03:25:49;57.33;;;34.47;;
38783;SDS011;24531;45.502;12.238;2024-02-16T03:28:15;56.67;;;33.83;;
38783;SDS011;24531;45.502;12.238;2024-02-16T03:30:41;50.90;;;33.58;;
38783;SDS011;24531;45.502;12.238;2024-02-16T03:33:08;68.05;;;33.20;;
38783;SDS011;24531;45.502;12.238;2024-02-16T03:35:34;86.90;;;36.22;;
38783;SDS011;24531;45.502;12.238;2024-02-16T03:38:01;89.57;;;36.55;;
38783;SDS011;24531;45.502;12.238;2024-02-16T03:40:27;71.32;;;34.45;;
38783;SDS011;24531;45.502;12.238;2024-02-16T03:42:53;103.95;;;35.10;;
38783;SDS011;24531;45.502;12.238;2024-02-16T03:45:19;92.65;;;34.78;;
38783;SDS011;24531;45.502;12.238;2024-02-16T03:47:45;111.45;;;37.10;;
38783;SDS011;24531;45.502;12.238;2024-02-16T03:50:13;134.93;;;36.13;;
38783;SDS011;24531;45.502;12.238;2024-02-16T03:52:39;108.70;;;37.20;;
38783;SDS011;24531;45.502;12.238;2024-02-16T03:55:06;87.63;;;35.78;;
38783;SDS011;24531;45.502;12.238;2024-02-16T03:57:32;79.60;;;35.33;;
38783;SDS011;24531;45.502;12.238;2024-02-16T03:59:57;128.85;;;37.72;;
38783;SDS011;24531;45.502;12.238;2024-02-16T04:02:24;69.82;;;35.47;;
38783;SDS011;24531;45.502;12.238;2024-02-16T04:04:49;115.43;;;37.08;;
38783;SDS011;24531;45.502;12.238;2024-02-16T04:07:15;136.07;;;39.13;;
38783;SDS011;24531;45.502;12.238;2024-02-16T04:09:41;132.20;;;39.53;;
38783;SDS011;24531;45.502;12.238;2024-02-16T04:12:07;179.43;;;40.72;;
38783;SDS011;24531;45.502;12.238;2024-02-16T04:14:33;66.63;;;38.00;;
38783;SDS011;24531;45.502;12.238;2024-02-16T04:16:59;83.22;;;38.22;;
38783;SDS011;24531;45.502;12.238;2024-02-16T04:19:28;110.45;;;40.97;;
38783;SDS011;24531;45.502;12.238;2024-02-16T04:21:54;81.97;;;37.55;;
38783;SDS011;24531;45.502;12.238;2024-02-16T04:24:20;104.63;;;37.58;;
38783;SDS011;24531;45.502;12.238;2024-02-16T04:26:45;70.78;;;36.72;;
38783;SDS011;24531;45.502;12.238;2024-02-16T04:29:11;72.28;;;36.20;;
38783;SDS011;24531;45.502;12.238;2024-02-16T04:31:40;63.30;;;35.10;;
38783;SDS011;24531;45.502;12.238;2024-02-16T04:34:11;81.05;;;33.75;;
38783;SDS011;24531;45.502;12.238;2024-02-16T04:36:37;67.25;;;33.38;;
38783;SDS011;24531;45.502;12.238;2024-02-16T04:39:03;74.40;;;33.65;;
38783;SDS011;24531;45.502;12.238;2024-02-16T04:41:29;127.60;;;37.28;;
38783;SDS011;24531;45.502;12.238;2024-02-16T04:43:54;99.53;;;34.67;;
38783;SDS011;24531;45.502;12.238;2024-02-16T04:46:21;255.80;;;43.13;;
38783;SDS011;24531;45.502;12.238;2024-02-16T04:48:47;127.18;;;37.20;;
38783;SDS011;24531;45.502;12.238;2024-02-16T04:51:13;78.88;;;35.88;;
38783;SDS011;24531;45.502;12.238;2024-02-16T04:53:38;72.90;;;34.83;;
38783;SDS011;24531;45.502;12.238;2024-02-16T04:56:04;124.20;;;34.60;;
38783;SDS011;24531;45.502;12.238;2024-02-16T04:58:30;99.43;;;36.13;;
38783;SDS011;24531;45.502;12.238;2024-02-16T05:00:56;124.45;;;35.63;;
38783;SDS011;24531;45.502;12.238;2024-02-16T05:03:22;100.13;;;35.15;;
38783;SDS011;24531;45.502;12.238;2024-02-16T05:05:48;170.80;;;39.20;;
38783;SDS011;24531;45.502;12.238;2024-02-16T05:08:13;149.23;;;39.13;;
38783;SDS011;24531;45.502;12.238;2024-02-16T05:10:39;183.52;;;39.25;;
38783;SDS011;24531;45.502;12.238;2024-02-16T05:13:05;115.18;;;36.75;;
38783;SDS011;24531;45.502;12.238;2024-02-16T05:15:30;140.95;;;37.17;;
38783;SDS011;24531;45.502;12.238;2024-02-16T05:17:56;151.90;;;38.53;;
38783;SDS011;24531;45.502;12.238;2024-02-16T05:20:22;297.33;;;45.03;;
38783;SDS011;24531;45.502;12.238;2024-02-16T05:22:48;130.38;;;37.13;;
38783;SDS011;24531;45.502;12.238;2024-02-16T05:25:18;289.50;;;42.83;;
38783;SDS011;24531;45.502;12.238;2024-02-16T05:27:44;232.13;;;38.97;;
38783;SDS011;24531;45.502;12.238;2024-02-16T05:30:12;197.07;;;37.55;;
38783;SDS011;24531;45.502;12.238;2024-02-16T05:32:40;153.23;;;35.95;;
38783;SDS011;24531;45.502;12.238;2024-02-16T05:35:06;140.60;;;36.10;;
38783;SDS011;24531;45.502;12.238;2024-02-16T05:37:42;177.32;;;40.15;;
38783;SDS011;24531;45.502;12.238;2024-02-16T05:40:10;329.15;;;46.67;;
38783;SDS011;24531;45.502;12.238;2024-02-16T05:42:56;290.42;;;42.13;;
38783;SDS011;24531;45.502;12.238;2024-02-16T05:45:23;378.10;;;48.92;;
38783;SDS011;24531;45.502;12.238;2024-02-16T05:47:49;179.35;;;39.65;;
38783;SDS011;24531;45.502;12.238;2024-02-16T05:50:15;192.07;;;39.13;;
38783;SDS011;24531;45.502;12.238;2024-02-16T05:52:41;236.27;;;40.53;;
38783;SDS011;24531;45.502;12.238;2024-02-16T05:55:08;151.52;;;35.88;;
38783;SDS011;24531;45.502;12.238;2024-02-16T05:57:35;85.88;;;34.38;;
38783;SDS011;24531;45.502;12.238;2024-02-16T06:00:02;210.13;;;36.63;;
38783;SDS011;24531;45.502;12.238;2024-02-16T06:02:32;241.02;;;37.38;;
38783;SDS011;24531;45.502;12.238;2024-02-16T06:05:01;169.82;;;35.10;;
38783;SDS011;24531;45.502;12.238;2024-02-16T06:07:28;137.50;;;36.03;;
38783;SDS011;24531;45.502;12.238;2024-02-16T06:09:57;122.28;;;33.28;;
38783;SDS011;24531;45.502;12.238;2024-02-16T06:12:23;129.40;;;36.38;;
38783;SDS011;24531;45.502;12.238;2024-02-16T06:14:49;203.00;;;37.90;;
38783;SDS011;24531;45.502;12.238;2024-02-16T06:17:15;250.60;;;44.35;;
38783;SDS011;24531;45.502;12.238;2024-02-16T06:19:41;169.15;;;40.85;;
38783;SDS011;24531;45.502;12.238;2024-02-16T06:22:07;265.77;;;45.50;;
38783;SDS011;24531;45.502;12.238;2024-02-16T06:24:39;307.13;;;49.45;;
38783;SDS011;24531;45.502;12.238;2024-02-16T06:27:05;275.98;;;45.72;;
38783;SDS011;24531;45.502;12.238;2024-02-16T06:29:33;343.17;;;51.28;;
38783;SDS011;24531;45.502;12.238;2024-02-16T06:31:59;270.05;;;48.22;;
38783;SDS011;24531;45.502;12.238;2024-02-16T06:34:24;263.73;;;48.17;;
38783;SDS011;24531;45.502;12.238;2024-02-16T06:36:50;218.27;;;47.03;;
38783;SDS011;24531;45.502;12.238;2024-02-16T06:39:16;286.25;;;50.60;;
38783;SDS011;24531;45.502;12.238;2024-02-16T06:41:43;246.30;;;48.13;;
38783;SDS011;24531;45.502;12.238;2024-02-16T06:44:10;145.43;;;45.03;;
38783;SDS011;24531;45.502;12.238;2024-02-16T06:46:37;199.90;;;45.63;;
38783;SDS011;24531;45.502;12.238;2024-02-16T06:49:02;203.13;;;45.58;;
38783;SDS011;24531;45.502;12.238;2024-02-16T06:51:28;234.60;;;47.80;;
38783;SDS011;24531;45.502;12.238;2024-02-16T06:53:54;153.00;;;45.53;;
38783;SDS011;24531;45.502;12.238;2024-02-16T06:56:20;230.02;;;47.92;;
38783;SDS011;24531;45.502;12.238;2024-02-16T06:58:46;148.52;;;44.92;;
38783;SDS011;24531;45.502;12.238;2024-02-16T07:01:12;186.15;;;46.08;;
38783;SDS011;24531;45.502;12.238;2024-02-16T07:03:39;154.15;;;46.13;;
38783;SDS011;24531;45.502;12.238;2024-02-16T07:06:05;138.65;;;44.00;;
38783;SDS011;24531;45.502;12.238;2024-02-16T07:08:41;198.93;;;45.72;;
38783;SDS011;24531;45.502;12.238;2024-02-16T07:11:09;187.95;;;45.50;;
38783;SDS011;24531;45.502;12.238;2024-02-16T07:13:37;188.27;;;46.78;;
38783;SDS011;24531;45.502;12.238;2024-02-16T07:16:03;157.13;;;47.75;;
38783;SDS011;24531;45.502;12.238;2024-02-16T07:18:29;170.55;;;47.67;;
38783;SDS011;24531;45.502;12.238;2024-02-16T07:20:56;176.40;;;49.03;;
38783;SDS011;24531;45.502;12.238;2024-02-16T07:23:22;165.13;;;47.53;;
38783;SDS011;24531;45.502;12.238;2024-02-16T07:25:47;242.05;;;51.13;;
38783;SDS011;24531;45.502;12.238;2024-02-16T07:28:16;185.68;;;51.40;;
38783;SDS011;24531;45.502;12.238;2024-02-16T07:30:42;154.60;;;49.13;;
38783;SDS011;24531;45.502;12.238;2024-02-16T07:33:08;157.02;;;49.60;;
38783;SDS011;24531;45.502;12.238;2024-02-16T07:35:34;152.77;;;50.22;;
38783;SDS011;24531;45.502;12.238;2024-02-16T07:38:06;159.07;;;48.00;;
38783;SDS011;24531;45.502;12.238;2024-02-16T07:40:32;194.93;;;51.15;;
38783;SDS011;24531;45.502;12.238;2024-02-16T07:42:58;192.55;;;52.92;;
38783;SDS011;24531;45.502;12.238;2024-02-16T07:45:23;120.82;;;47.60;;
38783;SDS011;24531;45.502;12.238;2024-02-16T07:47:51;143.07;;;49.47;;
38783;SDS011;24531;45.502;12.238;2024-02-16T07:50:20;227.35;;;54.60;;
38783;SDS011;24531;45.502;12.238;2024-02-16T07:52:46;164.82;;;51.22;;
38783;SDS011;24531;45.502;12.238;2024-02-16T07:55:13;132.48;;;52.40;;
38783;SDS011;24531;45.502;12.238;2024-02-16T07:57:39;112.03;;;52.55;;
38783;SDS011;24531;45.502;12.238;2024-02-16T08:00:04;142.63;;;50.03;;
38783;SDS011;24531;45.502;12.238;2024-02-16T08:02:31;114.55;;;50.28;;
38783;SDS011;24531;45.502;12.238;2024-02-16T08:04:57;165.98;;;50.45;;
38783;SDS011;24531;45.502;12.238;2024-02-16T08:07:24;126.65;;;50.35;;
38783;SDS011;24531;45.502;12.238;2024-02-16T08:09:49;113.15;;;49.70;;
38783;SDS011;24531;45.502;12.238;2024-02-16T08:12:15;117.55;;;53.00;;
38783;SDS011;24531;45.502;12.238;2024-02-16T08:14:41;147.68;;;53.20;;
38783;SDS011;24531;45.502;12.238;2024-02-16T08:17:11;143.57;;;53.15;;
38783;SDS011;24531;45.502;12.238;2024-02-16T08:19:37;144.80;;;54.42;;
38783;SDS011;24531;45.502;12.238;2024-02-16T08:22:03;238.32;;;62.42;;
38783;SDS011;24531;45.502;12.238;2024-02-16T08:24:33;135.35;;;54.15;;
38783;SDS011;24531;45.502;12.238;2024-02-16T08:27:02;199.20;;;58.20;;
38783;SDS011;24531;45.502;12.238;2024-02-16T08:29:29;202.05;;;56.40;;
38783;SDS011;24531;45.502;12.238;2024-02-16T08:31:55;230.02;;;58.47;;
38783;SDS011;24531;45.502;12.238;2024-02-16T08:34:21;201.63;;;57.35;;
38783;SDS011;24531;45.502;12.238;2024-02-16T08:36:47;201.68;;;58.97;;
38783;SDS011;24531;45.502;12.238;2024-02-16T08:39:14;184.60;;;55.78;;
38783;SDS011;24531;45.502;12.238;2024-02-16T08:41:40;128.50;;;55.97;;
38783;SDS011;24531;45.502;12.238;2024-02-16T08:44:07;175.88;;;59.80;;
38783;SDS011;24531;45.502;12.238;2024-02-16T08:46:38;193.43;;;58.58;;
38783;SDS011;24531;45.502;12.238;2024-02-16T08:49:04;135.30;;;56.55;;
38783;SDS011;24531;45.502;12.238;2024-02-16T08:51:31;138.38;;;57.00;;
38783;SDS011;24531;45.502;12.238;2024-02-16T08:53:58;157.13;;;54.25;;
38783;SDS011;24531;45.502;12.238;2024-02-16T08:56:27;123.00;;;51.72;;
38783;SDS011;24531;45.502;12.238;2024-02-16T08:58:53;124.25;;;56.60;;
38783;SDS011;24531;45.502;12.238;2024-02-16T09:01:19;142.40;;;58.22;;
38783;SDS011;24531;45.502;12.238;2024-02-16T09:04:01;219.53;;;58.23;;
38783;SDS011;24531;45.502;12.238;2024-02-16T09:06:27;163.18;;;57.53;;
38783;SDS011;24531;45.502;12.238;2024-02-16T09:08:54;171.48;;;58.58;;
38783;SDS011;24531;45.502;12.238;2024-02-16T09:11:20;115.90;;;60.10;;
38783;SDS011;24531;45.502;12.238;2024-02-16T09:13:45;166.63;;;60.25;;
38783;SDS011;24531;45.502;12.238;2024-02-16T09:16:11;137.70;;;60.05;;
38783;SDS011;24531;45.502;12.238;2024-02-16T09:18:37;140.60;;;62.05;;
38783;SDS011;24531;45.502;12.238;2024-02-16T09:21:05;117.90;;;59.90;;
38783;SDS011;24531;45.502;12.238;2024-02-16T09:23:32;113.53;;;58.55;;
38783;SDS011;24531;45.502;12.238;2024-02-16T09:25:59;123.70;;;60.63;;
38783;SDS011;24531;45.502;12.238;2024-02-16T09:28:25;121.47;;;58.17;;
38783;SDS011;24531;45.502;12.238;2024-02-16T09:30:51;109.68;;;57.42;;
38783;SDS011;24531;45.502;12.238;2024-02-16T09:33:17;135.32;;;58.35;;
38783;SDS011;24531;45.502;12.238;2024-02-16T09:35:43;125.72;;;60.67;;
38783;SDS011;24531;45.502;12.238;2024-02-16T09:38:08;125.28;;;60.72;;
38783;SDS011;24531;45.502;12.238;2024-02-16T09:40:37;108.68;;;59.17;;
38783;SDS011;24531;45.502;12.238;2024-02-16T09:43:03;102.22;;;60.38;;
38783;SDS011;24531;45.502;12.238;2024-02-16T09:45:29;114.03;;;56.97;;
38783;SDS011;24531;45.502;12.238;2024-02-16T09:47:56;140.18;;;61.92;;
38783;SDS011;24531;45.502;12.238;2024-02-16T09:50:23;111.00;;;61.50;;
38783;SDS011;24531;45.502;12.238;2024-02-16T09:52:49;123.68;;;63.53;;
38783;SDS011;24531;45.502;12.238;2024-02-16T09:55:15;142.60;;;63.55;;
38783;SDS011;24531;45.502;12.238;2024-02-16T09:57:42;117.32;;;61.67;;
38783;SDS011;24531;45.502;12.238;2024-02-16T10:00:08;113.95;;;60.53;;
38783;SDS011;24531;45.502;12.238;2024-02-16T10:02:45;115.60;;;62.38;;
38783;SDS011;24531;45.502;12.238;2024-02-16T10:07:38;122.40;;;65.30;;
38783;SDS011;24531;45.502;12.238;2024-02-16T10:10:03;141.75;;;68.15;;
38783;SDS011;24531;45.502;12.238;2024-02-16T10:12:29;121.22;;;68.82;;
38783;SDS011;24531;45.502;12.238;2024-02-16T10:14:55;121.30;;;67.50;;
38783;SDS011;24531;45.502;12.238;2024-02-16T10:17:21;117.85;;;68.70;;
38783;SDS011;24531;45.502;12.238;2024-02-16T10:19:56;122.78;;;65.80;;
38783;SDS011;24531;45.502;12.238;2024-02-16T10:22:31;126.72;;;69.70;;
38783;SDS011;24531;45.502;12.238;2024-02-16T10:25:06;125.32;;;73.65;;
38783;SDS011;24531;45.502;12.238;2024-02-16T10:27:36;121.45;;;69.32;;
38783;SDS011;24531;45.502;12.238;2024-02-16T10:30:02;124.20;;;70.72;;
38783;SDS011;24531;45.502;12.238;2024-02-16T10:32:34;86.25;;;51.35;;
38783;SDS011;24531;45.502;12.238;2024-02-16T10:35:04;115.40;;;67.82;;
38783;SDS011;24531;45.502;12.238;2024-02-16T10:37:32;116.15;;;67.95;;
38783;SDS011;24531;45.502;12.238;2024-02-16T10:39:57;118.57;;;69.90;;
38783;SDS011;24531;45.502;12.238;2024-02-16T10:42:25;113.55;;;67.68;;
38783;SDS011;24531;45.502;12.238;2024-02-16T10:44:52;114.70;;;71.05;;
38783;SDS011;24531;45.502;12.238;2024-02-16T10:47:18;116.28;;;70.63;;
38783;SDS011;24531;45.502;12.238;2024-02-16T10:49:44;116.15;;;69.82;;
38783;SDS011;24531;45.502;12.238;2024-02-16T10:52:10;121.00;;;72.13;;
38783;SDS011;24531;45.502;12.238;2024-02-16T10:54:37;115.93;;;72.00;;
38783;SDS011;24531;45.502;12.238;2024-02-16T10:57:08;114.57;;;72.93;;
38783;SDS011;24531;45.502;12.238;2024-02-16T10:59:43;116.35;;;71.57;;
38783;SDS011;24531;45.502;12.238;2024-02-16T11:02:10;115.93;;;71.55;;
38783;SDS011;24531;45.502;12.238;2024-02-16T11:04:37;111.68;;;69.07;;
38783;SDS011;24531;45.502;12.238;2024-02-16T11:07:10;119.00;;;72.70;;
38783;SDS011;24531;45.502;12.238;2024-02-16T11:09:43;113.53;;;71.93;;
38783;SDS011;24531;45.502;12.238;2024-02-16T11:12:11;115.05;;;70.80;;
38783;SDS011;24531;45.502;12.238;2024-02-16T11:14:38;113.38;;;71.03;;
38783;SDS011;24531;45.502;12.238;2024-02-16T11:17:11;109.63;;;69.53;;
38783;SDS011;24531;45.502;12.238;2024-02-16T11:19:44;109.30;;;70.18;;
38783;SDS011;24531;45.502;12.238;2024-02-16T11:22:10;118.75;;;71.63;;
38783;SDS011;24531;45.502;12.238;2024-02-16T11:24:43;109.40;;;70.68;;
38783;SDS011;24531;45.502;12.238;2024-02-16T11:27:10;114.78;;;72.07;;
38783;SDS011;24531;45.502;12.238;2024-02-16T11:29:37;112.47;;;71.75;;
38783;SDS011;24531;45.502;12.238;2024-02-16T11:32:05;113.15;;;75.20;;
38783;SDS011;24531;45.502;12.238;2024-02-16T11:34:31;116.13;;;74.10;;
38783;SDS011;24531;45.502;12.238;2024-02-16T11:36:58;118.30;;;75.75;;
38783;SDS011;24531;45.502;12.238;2024-02-16T11:39:26;119.30;;;75.53;;
38783;SDS011;24531;45.502;12.238;2024-02-16T11:41:58;116.30;;;76.57;;
38783;SDS011;24531;45.502;12.238;2024-02-16T11:44:31;107.50;;;70.55;;
38783;SDS011;24531;45.502;12.238;2024-02-16T11:46:59;111.78;;;73.75;;
38783;SDS011;24531;45.502;12.238;2024-02-16T11:49:25;118.05;;;75.43;;
38783;SDS011;24531;45.502;12.238;2024-02-16T11:51:51;115.45;;;75.32;;
38783;SDS011;24531;45.502;12.238;2024-02-16T11:54:17;114.97;;;75.93;;
38783;SDS011;24531;45.502;12.238;2024-02-16T11:56:46;125.50;;;78.55;;
38783;SDS011;24531;45.502;12.238;2024-02-16T11:59:13;111.43;;;73.15;;
38783;SDS011;24531;45.502;12.238;2024-02-16T12:01:52;114.75;;;74.90;;
38783;SDS011;24531;45.502;12.238;2024-02-16T12:04:26;111.65;;;73.78;;
38783;SDS011;24531;45.502;12.238;2024-02-16T12:06:54;120.03;;;75.60;;
38783;SDS011;24531;45.502;12.238;2024-02-16T12:09:21;118.57;;;76.32;;
38783;SDS011;24531;45.502;12.238;2024-02-16T12:11:50;116.32;;;75.47;;
38783;SDS011;24531;45.502;12.238;2024-02-16T12:14:17;114.35;;;76.82;;
38783;SDS011;24531;45.502;12.238;2024-02-16T12:19:21;112.32;;;75.65;;
38783;SDS011;24531;45.502;12.238;2024-02-16T12:21:54;116.88;;;77.00;;
38783;SDS011;24531;45.502;12.238;2024-02-16T12:24:23;117.30;;;75.28;;
38783;SDS011;24531;45.502;12.238;2024-02-16T12:26:49;119.13;;;77.50;;
38783;SDS011;24531;45.502;12.238;2024-02-16T12:29:15;108.45;;;73.78;;
38783;SDS011;24531;45.502;12.238;2024-02-16T12:31:42;118.40;;;76.97;;
38783;SDS011;24531;45.502;12.238;2024-02-16T12:34:09;122.32;;;78.78;;
38783;SDS011;24531;45.502;12.238;2024-02-16T12:36:35;113.47;;;73.60;;
38783;SDS011;24531;45.502;12.238;2024-02-16T12:39:03;122.03;;;78.57;;
38783;SDS011;24531;45.502;12.238;2024-02-16T12:41:32;126.53;;;79.25;;
38783;SDS011;24531;45.502;12.238;2024-02-16T12:43:59;123.43;;;80.68;;
38783;SDS011;24531;45.502;12.238;2024-02-16T12:46:25;113.95;;;73.80;;
38783;SDS011;24531;45.502;12.238;2024-02-16T12:48:51;113.65;;;69.70;;
38783;SDS011;24531;45.502;12.238;2024-02-16T12:51:17;106.97;;;69.07;;
38783;SDS011;24531;45.502;12.238;2024-02-16T12:53:43;102.53;;;67.22;;
38783;SDS011;24531;45.502;12.238;2024-02-16T12:56:09;103.25;;;66.93;;
38783;SDS011;24531;45.502;12.238;2024-02-16T12:58:38;104.32;;;67.30;;
38783;SDS011;24531;45.502;12.238;2024-02-16T13:01:04;109.25;;;72.25;;
38783;SDS011;24531;45.502;12.238;2024-02-16T13:03:36;115.97;;;72.07;;
38783;SDS011;24531;45.502;12.238;2024-02-16T13:06:04;114.20;;;73.18;;
38783;SDS011;24531;45.502;12.238;2024-02-16T13:08:30;109.50;;;71.70;;
38783;SDS011;24531;45.502;12.238;2024-02-16T13:10:56;121.38;;;75.22;;
38783;SDS011;24531;45.502;12.238;2024-02-16T13:13:23;114.57;;;72.53;;
38783;SDS011;24531;45.502;12.238;2024-02-16T13:15:49;128.63;;;81.30;;
38783;SDS011;24531;45.502;12.238;2024-02-16T13:18:14;115.90;;;74.95;;
38783;SDS011;24531;45.502;12.238;2024-02-16T13:20:41;120.03;;;76.75;;
38783;SDS011;24531;45.502;12.238;2024-02-16T13:23:07;124.30;;;78.40;;
38783;SDS011;24531;45.502;12.238;2024-02-16T13:25:32;125.35;;;76.53;;
38783;SDS011;24531;45.502;12.238;2024-02-16T13:27:58;118.18;;;75.03;;
38783;SDS011;24531;45.502;12.238;2024-02-16T13:30:24;111.00;;;72.70;;
38783;SDS011;24531;45.502;12.238;2024-02-16T13:32:50;112.78;;;70.05;;
38783;SDS011;24531;45.502;12.238;2024-02-16T13:35:16;122.00;;;75.88;;
38783;SDS011;24531;45.502;12.238;2024-02-16T13:37:41;114.95;;;74.32;;
38783;SDS011;24531;45.502;12.238;2024-02-16T13:40:07;127.47;;;81.85;;
38783;SDS011;24531;45.502;12.238;2024-02-16T13:42:38;124.85;;;77.88;;
38783;SDS011;24531;45.502;12.238;2024-02-16T13:45:04;121.75;;;74.47;;
38783;SDS011;24531;45.502;12.238;2024-02-16T13:47:30;121.82;;;75.90;;
38783;SDS011;24531;45.502;12.238;2024-02-16T13:49:55;121.20;;;77.72;;
38783;SDS011;24531;45.502;12.238;2024-02-16T13:52:22;118.10;;;74.53;;
38783;SDS011;24531;45.502;12.238;2024-02-16T13:54:49;117.03;;;76.07;;
38783;SDS011;24531;45.502;12.238;2024-02-16T13:57:14;115.75;;;73.88;;
38783;SDS011;24531;45.502;12.238;2024-02-16T13:59:41;117.95;;;74.07;;
38783;SDS011;24531;45.502;12.238;2024-02-16T14:02:10;113.00;;;74.18;;
38783;SDS011;24531;45.502;12.238;2024-02-16T14:04:37;117.85;;;72.57;;